EGFF

Cardiff International Airport

Cardiff, United Kingdom
METAR EGFF 191950Z AUTO 28010KT 9999 BKN015 OVC036 17/15 Q1022
Observed Flight Rules
Jun-19 @ 19:50 UTC (30 minutes ago) Marginal Visual Flight Rules
Wind Visibility Clouds
280° at 10 knots 10,000+ meters
  • Broken at 1,500' AGL
  • Overcast at 3,600' AGL
Temperatures Readings
Current 17°C / 63°F
Dewpoint 15°C / 59°F
Humidity 88%
Altimeter 30.18" Hg
Pressure 1022 hPa
Elevation 67
METAR EGFF 191950Z AUTO 28010KT 9999 BKN015 OVC036 17/15 Q1022
Observed Flight Rules
Jun-19 @ 19:50 UTC
(30 minutes ago)
MVFR
Wind Visibility
280° at 10 knots 10,000+ meters
Clouds
  • Broken at 1,500' AGL
  • Overcast at 3,600' AGL
Temperature Dewpoint
17°C / 63°F 15°C / 59°F
Humidity Altimeter Pressure
88% 30.18" Hg 1022 hPa